createdAt,value
2018-05-31T00:02:02.538Z,94.00
2018-05-31T00:04:30.843Z,93.30
2018-05-31T00:06:59.285Z,93.10
2018-05-31T00:09:27.590Z,93.00
2018-05-31T00:11:55.836Z,93.60
2018-05-31T00:14:24.122Z,93.60
2018-05-31T00:16:52.403Z,93.80
2018-05-31T00:19:20.666Z,93.20
2018-05-31T00:21:48.963Z,93.90
2018-05-31T00:24:17.234Z,93.00
2018-05-31T00:26:45.578Z,93.20
2018-05-31T00:29:14.011Z,94.30
2018-05-31T00:31:43.067Z,93.60
2018-05-31T00:34:11.363Z,93.50
2018-05-31T00:36:39.768Z,94.60
2018-05-31T00:39:08.796Z,94.80
2018-05-31T00:41:37.074Z,94.70
2018-05-31T00:44:05.327Z,94.70
2018-05-31T00:46:34.371Z,94.40
2018-05-31T00:49:02.631Z,94.40
2018-05-31T00:51:30.910Z,94.40
2018-05-31T00:53:59.198Z,94.30
2018-05-31T00:56:27.499Z,94.80
2018-05-31T00:58:56.546Z,93.90
2018-05-31T01:01:24.818Z,93.90
2018-05-31T01:03:53.117Z,94.20
2018-05-31T01:06:21.424Z,95.40
2018-05-31T01:08:50.478Z,95.60
2018-05-31T01:11:18.743Z,95.50
2018-05-31T01:13:47.070Z,95.30
2018-05-31T01:16:15.307Z,96.00
2018-05-31T01:18:43.780Z,96.20
2018-05-31T01:21:12.049Z,96.40
2018-05-31T01:23:41.140Z,95.90
2018-05-31T01:26:09.412Z,95.80
2018-05-31T01:28:37.747Z,95.30
2018-05-31T01:31:06.175Z,94.70
2018-05-31T01:33:34.451Z,95.30
2018-05-31T01:36:02.732Z,95.60
2018-05-31T01:38:31.047Z,95.80
2018-05-31T01:41:00.078Z,96.10
2018-05-31T01:43:28.352Z,96.10
2018-05-31T01:45:56.647Z,96.60
2018-05-31T01:48:25.110Z,96.60
2018-05-31T01:50:53.398Z,96.70
2018-05-31T01:53:21.699Z,97.30
2018-05-31T01:55:50.755Z,97.20
2018-05-31T01:58:19.123Z,97.10
2018-05-31T02:00:47.504Z,97.30
2018-05-31T02:03:15.762Z,97.10
2018-05-31T02:05:44.130Z,96.70
2018-05-31T02:08:12.479Z,96.40
2018-05-31T02:10:40.754Z,96.90
2018-05-31T02:13:10.542Z,97.20
2018-05-31T02:15:38.847Z,97.50
2018-05-31T02:18:07.907Z,97.40
2018-05-31T02:20:36.184Z,97.30
2018-05-31T02:23:04.446Z,97.50
2018-05-31T02:25:32.729Z,97.20
2018-05-31T02:28:00.997Z,97.20
2018-05-31T02:30:29.568Z,97.50
2018-05-31T02:32:57.910Z,97.10
2018-05-31T02:35:26.954Z,97.20
2018-05-31T02:37:55.262Z,97.20
2018-05-31T02:40:23.746Z,97.70
2018-05-31T02:42:52.812Z,98.10
2018-05-31T02:45:21.090Z,98.00
2018-05-31T02:47:49.550Z,98.60
2018-05-31T02:50:17.810Z,99.00
2018-05-31T02:52:46.100Z,98.60
2018-05-31T02:55:14.427Z,98.70
2018-05-31T02:57:43.508Z,98.80
2018-05-31T03:00:12.523Z,98.50
2018-05-31T03:02:41.646Z,98.40
2018-05-31T03:05:10.071Z,98.40
2018-05-31T03:07:38.359Z,98.60
2018-05-31T03:10:07.448Z,98.70
2018-05-31T03:12:36.487Z,98.90
2018-05-31T03:15:04.751Z,98.90
2018-05-31T03:17:33.039Z,99.00
2018-05-31T03:20:01.470Z,99.50
2018-05-31T03:22:29.898Z,99.70
2018-05-31T03:24:58.165Z,99.10
2018-05-31T03:27:26.536Z,98.30
2018-05-31T03:29:54.841Z,98.60
2018-05-31T03:32:23.255Z,97.90
2018-05-31T03:34:51.526Z,97.90
2018-05-31T03:37:19.793Z,98.20
2018-05-31T03:39:48.107Z,97.80
2018-05-31T03:42:16.378Z,98.50
2018-05-31T03:44:44.662Z,98.30
2018-05-31T03:47:12.947Z,98.10
2018-05-31T03:49:41.231Z,96.80
2018-05-31T03:52:09.600Z,96.70
2018-05-31T03:54:38.047Z,97.00
2018-05-31T03:57:06.331Z,96.80
2018-05-31T03:59:35.397Z,96.40
2018-05-31T04:02:03.642Z,96.10
2018-05-31T04:04:31.927Z,95.80
2018-05-31T04:07:00.187Z,95.80
2018-05-31T04:09:28.454Z,96.10
2018-05-31T04:11:56.738Z,95.90
2018-05-31T04:14:25.096Z,95.80
2018-05-31T04:16:53.391Z,95.30
2018-05-31T04:19:21.663Z,95.50
2018-05-31T04:21:51.570Z,94.00
2018-05-31T04:24:19.838Z,94.00
2018-05-31T04:26:48.180Z,94.30
2018-05-31T04:29:16.472Z,94.30
2018-05-31T04:31:44.812Z,94.40
2018-05-31T04:34:13.089Z,94.30
2018-05-31T04:36:41.526Z,94.20
2018-05-31T04:39:10.449Z,93.20
2018-05-31T04:41:39.719Z,93.10
2018-05-31T04:44:07.998Z,92.30
2018-05-31T04:46:36.289Z,91.50
2018-05-31T04:49:04.559Z,91.30
2018-05-31T04:51:32.834Z,90.70
2018-05-31T04:54:01.205Z,90.20
2018-05-31T04:56:29.483Z,87.80
2018-05-31T04:58:57.788Z,87.60
2018-05-31T05:01:26.131Z,85.00
2018-05-31T05:03:54.462Z,83.00
2018-05-31T05:06:23.519Z,81.50
2018-05-31T05:08:51.963Z,81.40
2018-05-31T05:11:20.270Z,80.80
2018-05-31T05:13:48.597Z,79.10
2018-05-31T05:16:17.630Z,78.10
2018-05-31T05:18:46.150Z,78.10
2018-05-31T05:21:14.510Z,77.00
2018-05-31T05:23:42.794Z,77.00
2018-05-31T05:26:11.134Z,77.70
2018-05-31T05:28:39.414Z,78.90
2018-05-31T05:31:07.638Z,79.30
2018-05-31T05:33:36.727Z,79.10
2018-05-31T05:36:07.130Z,80.60
2018-05-31T05:38:35.381Z,80.60
2018-05-31T05:41:03.712Z,81.00
2018-05-31T05:43:32.212Z,82.20
2018-05-31T05:46:00.431Z,82.70
2018-05-31T05:48:28.744Z,83.10
2018-05-31T05:50:57.001Z,82.30
2018-05-31T05:53:25.254Z,83.70
2018-05-31T05:55:53.709Z,82.30
2018-05-31T05:58:21.983Z,82.00
2018-05-31T06:00:50.250Z,82.10
2018-05-31T06:03:18.551Z,82.40
2018-05-31T06:05:46.827Z,82.20
2018-05-31T06:08:15.173Z,82.50
2018-05-31T06:10:44.171Z,82.60
2018-05-31T06:13:12.475Z,82.60
2018-05-31T06:15:40.813Z,82.90
2018-05-31T06:18:09.129Z,81.90
2018-05-31T06:20:37.554Z,84.60
2018-05-31T06:23:06.621Z,84.20
2018-05-31T06:27:55.674Z,81.40
2018-05-31T06:30:24.174Z,83.80
2018-05-31T06:32:53.950Z,82.70
2018-05-31T06:35:22.219Z,82.70
2018-05-31T06:37:50.493Z,84.80
2018-05-31T06:40:18.810Z,83.20
2018-05-31T06:42:47.087Z,84.30
2018-05-31T06:45:15.454Z,83.60
2018-05-31T06:47:43.845Z,83.90
2018-05-31T06:50:13.679Z,82.00
2018-05-31T06:52:42.705Z,81.00
2018-05-31T06:55:11.022Z,81.00
2018-05-31T06:57:39.253Z,81.10
2018-05-31T07:00:07.651Z,81.90
2018-05-31T07:02:35.971Z,81.70
2018-05-31T07:05:05.022Z,81.70
2018-05-31T07:07:33.296Z,81.70
2018-05-31T07:10:01.777Z,81.80
2018-05-31T07:12:30.157Z,81.80
2018-05-31T07:14:58.439Z,80.80
2018-05-31T07:17:26.696Z,82.10
2018-05-31T07:19:54.964Z,81.40
2018-05-31T07:22:23.238Z,81.40
2018-05-31T07:24:51.499Z,80.70
2018-05-31T07:27:19.779Z,80.00
2018-05-31T07:29:48.054Z,79.80
2018-05-31T07:32:16.330Z,80.60
2018-05-31T07:34:44.592Z,82.40
2018-05-31T07:37:13.017Z,81.30
2018-05-31T07:39:41.334Z,80.70
2018-05-31T07:42:10.379Z,82.50
2018-05-31T07:44:38.635Z,82.50
2018-05-31T07:47:06.929Z,81.60
2018-05-31T07:49:35.272Z,80.60
2018-05-31T07:52:03.568Z,80.10
2018-05-31T07:54:31.923Z,82.20
2018-05-31T07:57:00.172Z,79.10
2018-05-31T07:59:29.216Z,80.50
2018-05-31T08:01:57.481Z,80.60
2018-05-31T08:04:25.746Z,82.60
2018-05-31T08:06:54.047Z,82.90
2018-05-31T08:09:22.396Z,80.20
2018-05-31T08:11:51.400Z,80.80
2018-05-31T08:14:19.662Z,80.70
2018-05-31T08:16:47.923Z,81.80
2018-05-31T08:19:16.209Z,80.10
2018-05-31T08:21:44.462Z,80.30
2018-05-31T08:24:12.767Z,79.90
2018-05-31T08:26:41.038Z,81.30
2018-05-31T08:29:09.326Z,81.70
2018-05-31T08:31:37.721Z,80.40
2018-05-31T08:34:06.045Z,80.80
2018-05-31T08:36:35.062Z,80.20
2018-05-31T08:39:03.328Z,80.10
2018-05-31T08:41:32.339Z,79.10
2018-05-31T08:44:00.616Z,79.00
2018-05-31T08:46:28.870Z,78.90
2018-05-31T08:48:57.152Z,78.40
2018-05-31T08:51:25.503Z,78.60
2018-05-31T08:53:54.606Z,80.00
2018-05-31T08:56:22.887Z,79.80
2018-05-31T08:58:51.165Z,79.10
2018-05-31T09:01:19.456Z,79.90
2018-05-31T09:03:47.890Z,81.40
2018-05-31T09:06:16.181Z,80.00
2018-05-31T09:08:45.219Z,78.40
2018-05-31T09:11:13.591Z,78.40
2018-05-31T09:13:41.891Z,78.50
2018-05-31T09:16:11.013Z,80.80
2018-05-31T09:18:40.047Z,80.30
2018-05-31T09:21:08.385Z,80.10
2018-05-31T09:23:37.416Z,76.90
2018-05-31T09:26:05.737Z,76.90
2018-05-31T09:28:34.202Z,78.00
2018-05-31T09:31:02.563Z,79.20
2018-05-31T09:33:31.024Z,79.50
2018-05-31T09:35:59.293Z,76.70
2018-05-31T09:38:27.714Z,75.90
2018-05-31T09:40:56.834Z,78.70
2018-05-31T09:43:25.876Z,78.60
2018-05-31T09:45:54.159Z,78.70
2018-05-31T09:48:22.454Z,78.90
2018-05-31T09:50:50.718Z,79.00
2018-05-31T09:53:19.031Z,78.50
2018-05-31T09:55:47.312Z,78.80
2018-05-31T09:58:16.438Z,78.80
2018-05-31T10:00:44.624Z,78.90
2018-05-31T10:03:12.924Z,78.50
2018-05-31T10:05:41.242Z,79.00
2018-05-31T10:08:09.626Z,78.90
2018-05-31T10:10:37.879Z,78.80
2018-05-31T10:13:06.162Z,77.90
2018-05-31T10:15:34.455Z,77.80
2018-05-31T10:18:02.712Z,78.40
2018-05-31T10:20:30.987Z,77.60
2018-05-31T10:22:59.277Z,78.10
2018-05-31T10:25:27.663Z,77.20
2018-05-31T10:27:56.044Z,77.30
2018-05-31T10:30:24.344Z,77.20
2018-05-31T10:32:52.626Z,77.00
2018-05-31T10:35:20.919Z,77.60
2018-05-31T10:37:49.168Z,78.10
2018-05-31T10:40:18.327Z,77.30
2018-05-31T10:42:46.640Z,77.30
2018-05-31T10:45:14.899Z,79.40
2018-05-31T10:47:43.232Z,79.20
2018-05-31T10:50:11.511Z,79.30
2018-05-31T10:52:40.539Z,80.00
2018-05-31T10:55:08.808Z,78.80
2018-05-31T10:57:37.121Z,78.80
2018-05-31T11:00:05.398Z,76.00
2018-05-31T11:02:33.801Z,75.70
2018-05-31T11:05:02.812Z,75.30
2018-05-31T11:07:31.274Z,75.00
2018-05-31T11:10:00.306Z,75.60
2018-05-31T11:12:28.587Z,75.40
2018-05-31T11:14:57.129Z,75.10
2018-05-31T11:17:25.374Z,75.50
2018-05-31T11:19:53.615Z,76.30
2018-05-31T11:22:21.902Z,75.20
2018-05-31T11:24:50.180Z,76.20
2018-05-31T11:27:18.459Z,75.70
2018-05-31T11:29:46.720Z,75.40
2018-05-31T11:32:14.979Z,76.10
2018-05-31T11:34:43.292Z,75.20
2018-05-31T11:37:11.570Z,75.80
2018-05-31T11:39:39.874Z,75.60
2018-05-31T11:42:08.898Z,76.60
2018-05-31T11:44:37.184Z,76.50
2018-05-31T11:47:05.456Z,76.70
2018-05-31T11:49:34.550Z,76.90
2018-05-31T11:52:02.792Z,76.40
2018-05-31T11:54:31.065Z,76.40
2018-05-31T11:56:59.359Z,76.70
2018-05-31T11:59:27.640Z,76.50
2018-05-31T12:01:56.018Z,75.20
2018-05-31T12:04:24.331Z,75.40
2018-05-31T12:06:52.636Z,75.30
2018-05-31T12:09:21.652Z,76.20
2018-05-31T12:11:49.942Z,76.20
2018-05-31T12:14:18.249Z,75.40
2018-05-31T12:16:46.592Z,75.40
2018-05-31T12:19:14.866Z,75.40
2018-05-31T12:21:43.137Z,75.40
2018-05-31T12:24:11.695Z,75.50
2018-05-31T12:26:39.998Z,76.30
2018-05-31T12:29:08.291Z,75.30
2018-05-31T12:31:36.578Z,75.80
2018-05-31T12:34:04.834Z,75.70
2018-05-31T12:36:33.128Z,75.90
2018-05-31T12:39:01.443Z,76.50
2018-05-31T12:41:29.757Z,75.30
2018-05-31T12:43:58.040Z,75.20
2018-05-31T12:46:26.324Z,75.40
2018-05-31T12:48:54.616Z,74.90
2018-05-31T12:51:23.695Z,77.80
2018-05-31T12:53:51.948Z,77.10
2018-05-31T12:56:20.330Z,76.90
2018-05-31T12:58:48.705Z,76.50
2018-05-31T13:01:17.097Z,76.30
2018-05-31T13:03:45.360Z,76.20
2018-05-31T13:06:13.643Z,76.60
2018-05-31T13:08:41.917Z,76.20
2018-05-31T13:11:10.200Z,77.10
2018-05-31T13:13:38.759Z,76.90
2018-05-31T13:16:07.765Z,76.40
2018-05-31T13:18:36.036Z,76.40
2018-05-31T13:21:05.395Z,76.80
2018-05-31T13:23:34.451Z,76.10
2018-05-31T13:26:02.719Z,76.00
2018-05-31T13:28:30.982Z,75.10
2018-05-31T13:30:59.318Z,75.30
2018-05-31T13:33:27.615Z,75.40
2018-05-31T13:35:55.866Z,75.40
2018-05-31T13:38:24.907Z,75.50
2018-05-31T13:40:53.225Z,75.40
2018-05-31T13:43:22.265Z,74.30
2018-05-31T13:45:50.530Z,74.10
2018-05-31T13:48:19.075Z,74.10
2018-05-31T13:50:48.111Z,74.30
2018-05-31T13:53:16.399Z,74.20
2018-05-31T13:55:44.696Z,74.20
2018-05-31T13:58:12.990Z,75.20
2018-05-31T14:00:42.295Z,75.30
2018-05-31T14:03:10.704Z,75.30
2018-05-31T14:05:38.999Z,74.80
2018-05-31T14:08:07.395Z,73.80
2018-05-31T14:10:36.454Z,74.30
2018-05-31T14:13:04.849Z,74.20
2018-05-31T14:15:33.406Z,75.00
2018-05-31T14:18:01.674Z,74.60
2018-05-31T14:20:29.939Z,72.80
2018-05-31T14:22:58.487Z,72.90
2018-05-31T14:25:26.785Z,72.70
2018-05-31T14:27:55.100Z,72.80
2018-05-31T14:30:23.365Z,71.10
2018-05-31T14:32:51.622Z,69.90
2018-05-31T14:35:19.957Z,70.90
2018-05-31T14:37:48.269Z,70.30
2018-05-31T14:40:17.286Z,69.80
2018-05-31T14:42:45.570Z,69.60
2018-05-31T14:45:13.982Z,69.10
2018-05-31T14:47:42.301Z,69.70
2018-05-31T14:50:10.579Z,67.90
2018-05-31T14:52:38.836Z,66.80
2018-05-31T14:55:07.877Z,68.20
2018-05-31T14:57:36.174Z,68.00
2018-05-31T15:00:04.455Z,68.90
2018-05-31T15:02:32.756Z,68.50
2018-05-31T15:05:02.413Z,68.30
2018-05-31T15:07:31.626Z,69.00
2018-05-31T15:09:59.895Z,69.00
2018-05-31T15:12:28.488Z,69.10
2018-05-31T15:14:56.834Z,69.00
2018-05-31T15:17:25.103Z,68.10
2018-05-31T15:19:53.413Z,68.00
2018-05-31T15:22:21.683Z,67.80
2018-05-31T15:24:49.973Z,67.00
2018-05-31T15:27:19.019Z,67.30
2018-05-31T15:29:47.332Z,67.30
2018-05-31T15:32:15.616Z,67.20
2018-05-31T15:34:43.919Z,66.50
2018-05-31T15:37:12.217Z,67.60
2018-05-31T15:39:40.486Z,66.30
2018-05-31T15:42:08.813Z,68.10
2018-05-31T15:44:37.104Z,69.20
2018-05-31T15:47:06.147Z,70.00
2018-05-31T15:49:34.430Z,69.40
2018-05-31T15:52:02.662Z,70.00
2018-05-31T15:54:31.784Z,69.90
2018-05-31T15:57:00.050Z,69.90
2018-05-31T15:59:28.322Z,70.10
2018-05-31T16:01:56.602Z,70.30
2018-05-31T16:04:24.925Z,69.20
2018-05-31T16:06:53.252Z,69.70
2018-05-31T16:09:21.517Z,69.50
2018-05-31T16:11:49.778Z,68.60
2018-05-31T16:14:18.884Z,69.00
2018-05-31T16:16:47.206Z,68.80
2018-05-31T16:19:15.497Z,70.10
2018-05-31T16:21:43.751Z,71.00
2018-05-31T16:24:12.046Z,70.40
2018-05-31T16:26:40.319Z,70.30
2018-05-31T16:29:08.635Z,71.20
2018-05-31T16:31:36.878Z,71.00
2018-05-31T16:34:05.936Z,71.30
2018-05-31T16:36:34.179Z,70.40
2018-05-31T16:39:02.451Z,69.50
2018-05-31T16:41:31.470Z,68.50
2018-05-31T16:43:59.833Z,68.40
2018-05-31T16:46:28.092Z,67.80
2018-05-31T16:48:56.383Z,67.60
2018-05-31T16:51:24.671Z,68.10
2018-05-31T16:53:52.932Z,68.20
2018-05-31T16:56:21.190Z,67.90
2018-05-31T16:58:49.466Z,67.90
2018-05-31T17:01:17.787Z,67.40
2018-05-31T17:03:46.066Z,68.40
2018-05-31T17:06:14.347Z,68.10
2018-05-31T17:08:42.585Z,68.50
2018-05-31T17:11:10.851Z,68.50
2018-05-31T17:13:39.166Z,68.00
2018-05-31T17:16:07.411Z,68.70
2018-05-31T17:18:36.802Z,68.80
2018-05-31T17:21:05.074Z,69.50
2018-05-31T17:23:34.110Z,71.20
2018-05-31T17:26:02.354Z,71.10
2018-05-31T17:28:30.650Z,71.00
2018-05-31T17:30:58.923Z,70.90
2018-05-31T17:33:27.302Z,73.60
2018-05-31T17:35:55.583Z,75.60
2018-05-31T17:38:23.854Z,76.90
2018-05-31T17:40:52.155Z,77.50
2018-05-31T17:43:20.446Z,77.50
2018-05-31T17:45:49.494Z,78.80
2018-05-31T17:48:17.779Z,78.80
2018-05-31T17:50:46.787Z,79.60
2018-05-31T17:53:15.050Z,79.30
2018-05-31T17:55:43.331Z,79.60
2018-05-31T17:58:11.640Z,79.90
2018-05-31T18:00:40.684Z,79.60
2018-05-31T18:03:08.959Z,79.50
2018-05-31T18:05:37.265Z,80.10
2018-05-31T18:08:05.553Z,79.80
2018-05-31T18:10:34.627Z,80.50
2018-05-31T18:13:02.890Z,80.40
2018-05-31T18:15:31.227Z,80.10
2018-05-31T18:17:59.562Z,80.70
2018-05-31T18:20:28.155Z,80.40
2018-05-31T18:22:57.275Z,80.70
2018-05-31T18:25:26.439Z,81.10
2018-05-31T18:27:54.739Z,81.10
2018-05-31T18:30:23.074Z,81.20
2018-05-31T18:32:51.351Z,81.00
2018-05-31T18:35:19.616Z,81.40
2018-05-31T18:37:47.906Z,81.70
2018-05-31T18:40:17.007Z,81.40
2018-05-31T18:42:45.376Z,81.30
2018-05-31T18:45:13.656Z,81.30
2018-05-31T18:47:41.910Z,81.50
2018-05-31T18:50:10.182Z,81.40
2018-05-31T18:52:38.491Z,82.10
2018-05-31T18:55:07.655Z,82.20
2018-05-31T18:57:36.756Z,82.90
2018-05-31T19:00:05.037Z,82.70
2018-05-31T19:02:33.339Z,83.20
2018-05-31T19:05:02.363Z,84.30
2018-05-31T19:07:30.680Z,84.20
2018-05-31T19:09:58.947Z,85.30
2018-05-31T19:12:27.312Z,86.40
2018-05-31T19:14:55.584Z,86.90
2018-05-31T19:17:23.925Z,87.30
2018-05-31T19:19:52.258Z,87.70
2018-05-31T19:22:20.546Z,88.40
2018-05-31T19:24:49.606Z,89.20
2018-05-31T19:27:17.963Z,89.10
2018-05-31T19:29:46.239Z,89.00
2018-05-31T19:32:14.601Z,89.40
2018-05-31T19:34:42.881Z,89.60
2018-05-31T19:37:11.126Z,89.70
2018-05-31T19:39:40.152Z,89.30
2018-05-31T19:42:08.439Z,89.20
2018-05-31T19:44:36.733Z,89.60
2018-05-31T19:47:05.045Z,88.80
2018-05-31T19:49:34.108Z,88.80
2018-05-31T19:52:03.232Z,88.90
2018-05-31T19:54:31.557Z,88.70
2018-05-31T19:56:59.846Z,88.70
2018-05-31T19:59:28.915Z,90.00
2018-05-31T20:01:57.205Z,89.20
2018-05-31T20:04:25.447Z,89.30
2018-05-31T20:06:53.939Z,89.50
2018-05-31T20:09:22.212Z,89.80
2018-05-31T20:11:50.510Z,90.00
2018-05-31T20:14:18.766Z,90.20
2018-05-31T20:16:47.059Z,90.10
2018-05-31T20:19:15.366Z,90.20
2018-05-31T20:21:43.820Z,90.30
2018-05-31T20:24:12.101Z,90.30
2018-05-31T20:26:40.427Z,90.40
2018-05-31T20:29:08.710Z,90.50
2018-05-31T20:31:36.980Z,90.60
2018-05-31T20:34:06.019Z,91.10
2018-05-31T20:36:34.282Z,91.00
2018-05-31T20:39:02.582Z,91.10
2018-05-31T20:41:30.861Z,91.30
2018-05-31T20:43:59.176Z,91.70
2018-05-31T20:46:27.449Z,91.80
2018-05-31T20:48:55.790Z,91.80
2018-05-31T20:51:24.049Z,91.70
2018-05-31T20:53:52.328Z,91.90
2018-05-31T20:56:20.574Z,92.00
2018-05-31T20:58:48.857Z,92.20
2018-05-31T21:01:17.114Z,92.20
2018-05-31T21:03:45.411Z,92.30
2018-05-31T21:06:13.771Z,92.50
2018-05-31T21:08:42.146Z,92.60
2018-05-31T21:11:10.448Z,92.70
2018-05-31T21:13:38.744Z,92.80
2018-05-31T21:16:07.040Z,93.00
2018-05-31T21:18:36.080Z,93.40
2018-05-31T21:21:04.368Z,93.30
2018-05-31T21:23:32.654Z,93.60
2018-05-31T21:26:00.965Z,93.80
2018-05-31T21:28:29.515Z,94.00
2018-05-31T21:30:57.839Z,94.20
2018-05-31T21:33:26.838Z,94.80
2018-05-31T21:35:55.117Z,94.40
2018-05-31T21:38:23.398Z,94.50
2018-05-31T21:40:51.650Z,94.60
2018-05-31T21:43:20.753Z,94.90
2018-05-31T21:45:49.823Z,95.00
2018-05-31T21:48:18.962Z,95.10
2018-05-31T21:50:47.219Z,95.00
2018-05-31T21:53:15.539Z,95.10
2018-05-31T21:55:43.821Z,95.30
2018-05-31T21:58:13.751Z,95.60
2018-05-31T22:00:43.530Z,95.70
2018-05-31T22:03:11.876Z,95.60
2018-05-31T22:05:40.982Z,95.60
2018-05-31T22:08:09.191Z,95.50
2018-05-31T22:10:37.458Z,95.50
2018-05-31T22:13:05.765Z,95.60
2018-05-31T22:15:34.027Z,95.50
2018-05-31T22:18:02.302Z,95.50
2018-05-31T22:20:31.454Z,95.90
2018-05-31T22:22:59.723Z,95.60
2018-05-31T22:25:28.039Z,95.80
2018-05-31T22:27:57.116Z,96.00
2018-05-31T22:30:25.378Z,96.00
2018-05-31T22:32:53.664Z,96.20
2018-05-31T22:35:21.963Z,96.30
2018-05-31T22:37:50.993Z,96.20
2018-05-31T22:40:19.272Z,96.10
2018-05-31T22:42:48.480Z,95.80
2018-05-31T22:45:17.062Z,95.80
2018-05-31T22:47:45.358Z,95.80
2018-05-31T22:50:13.649Z,95.80
2018-05-31T22:52:41.930Z,95.80
2018-05-31T22:55:11.003Z,95.70
2018-05-31T22:57:39.285Z,95.70
2018-05-31T23:00:07.520Z,96.00
2018-05-31T23:02:35.566Z,96.20
2018-05-31T23:05:04.655Z,96.80
2018-05-31T23:07:33.726Z,96.30
2018-05-31T23:10:01.983Z,96.30
2018-05-31T23:12:30.260Z,96.30
2018-05-31T23:14:58.544Z,96.70
2018-05-31T23:17:26.841Z,96.40
2018-05-31T23:19:55.887Z,96.80
2018-05-31T23:22:24.164Z,96.80
2018-05-31T23:24:52.427Z,97.00
2018-05-31T23:27:20.714Z,97.20
2018-05-31T23:29:49.002Z,97.30
2018-05-31T23:32:17.294Z,97.30
2018-05-31T23:34:45.614Z,97.40
2018-05-31T23:37:13.865Z,97.30
2018-05-31T23:39:42.923Z,97.60
2018-05-31T23:42:11.210Z,97.50
2018-05-31T23:44:39.488Z,97.70
2018-05-31T23:47:07.755Z,97.70
2018-05-31T23:49:36.057Z,97.70
2018-05-31T23:52:04.314Z,97.60
2018-05-31T23:54:32.615Z,97.70
2018-05-31T23:57:01.847Z,97.90
2018-05-31T23:59:30.220Z,97.80
